Time;durP1;ratioP1;P1;durP2;ratioP2;P2;SDS_P1;SDS_P2;PMS_P1;PMS_P2;Temp;Humidity;BMP_temperature;BMP_pressure;BME280_temperature;BME280_humidity;BME280_pressure;Samples;Min_cycle;Max_cycle;Signal;HPM_P1;HPM_P2
2023/05/27 00:00:15;;;;;;;3.40;3.10;;;;;;;25.55;37.46;102297.97;20920861;28;20037;-68
2023/05/27 00:10:16;;;;;;;3.17;2.88;;;;;;;25.62;36.97;102300.50;20921317;28;20037;-69
2023/05/27 00:20:19;;;;;;;3.55;2.42;;;;;;;25.42;36.97;102287.31;20919806;28;20041;-67
2023/05/27 00:30:23;;;;;;;3.13;2.92;;;;;;;25.62;37.47;102329.38;20919626;28;20554;-69
2023/05/27 00:40:29;;;;;;;3.67;2.90;;;;;;;25.65;37.56;102334.41;20918636;28;20360;-68
2023/05/27 00:50:34;;;;;;;3.65;2.47;;;;;;;25.49;37.40;102330.78;20917728;28;20488;-69
2023/05/27 01:00:38;;;;;;;3.50;3.20;;;;;;;25.63;37.53;102347.88;20917541;28;20029;-69
2023/05/27 01:10:49;;;;;;;4.32;3.00;;;;;;;25.61;37.26;102372.53;20915997;28;20048;-69
2023/05/27 01:20:55;;;;;;;2.90;2.70;;;;;;;25.56;37.64;102392.16;20915783;28;20045;-68
2023/05/27 01:31:06;;;;;;;2.40;2.20;;;;;;;25.56;37.82;102392.16;20915073;28;20380;-68
2023/05/27 01:41:09;;;;;;;2.92;2.63;;;;;;;25.59;37.57;102402.81;20913372;28;20037;-67
2023/05/27 01:51:13;;;;;;;3.92;2.50;;;;;;;25.14;37.51;102311.94;20913028;28;20049;-67
2023/05/27 02:01:14;;;;;;;2.67;2.45;;;;;;;25.59;37.41;102398.03;20919593;28;20109;-68
2023/05/27 02:11:16;;;;;;;3.13;2.25;;;;;;;25.59;37.64;102426.06;20991233;28;20036;-69
2023/05/27 02:21:17;;;;;;;3.42;2.30;;;;;;;25.29;37.47;102376.44;20992670;28;20036;-69
2023/05/27 02:31:19;;;;;;;2.58;2.33;;;;;;;25.55;37.74;102436.16;20993124;28;20041;-69
2023/05/27 02:41:20;;;;;;;2.80;2.30;;;;;;;25.54;37.67;102428.88;20992306;28;20044;-69
2023/05/27 02:51:24;;;;;;;2.40;2.17;;;;;;;25.53;37.09;102431.97;20992310;28;20057;-69
2023/05/27 03:01:28;;;;;;;2.67;2.47;;;;;;;25.50;37.36;102432.50;20992035;28;20044;-69
2023/05/27 03:11:38;;;;;;;2.20;2.00;;;;;;;25.31;37.08;102395.75;20991300;28;20032;-68
2023/05/27 03:21:40;;;;;;;2.08;1.95;;;;;;;25.46;37.38;102434.16;20991492;28;20041;-69
2023/05/27 03:31:42;;;;;;;2.22;1.90;;;;;;;25.46;37.27;102453.78;21000074;28;20049;-69
2023/05/27 03:41:43;;;;;;;2.97;2.40;;;;;;;25.17;37.65;102403.84;21005871;28;20032;-69
2023/05/27 03:51:45;;;;;;;2.17;1.98;;;;;;;25.20;37.44;102422.03;21005059;28;20122;-69
2023/05/27 04:01:47;;;;;;;2.25;1.80;;;;;;;25.44;37.44;102450.44;21004018;28;20037;-69
2023/05/27 04:11:48;;;;;;;2.42;2.22;;;;;;;25.44;37.47;102451.28;21003797;28;20041;-69
2023/05/27 04:21:55;;;;;;;2.22;2.03;;;;;;;25.42;37.34;102455.47;21002854;28;20041;-69
2023/05/27 04:31:56;;;;;;;2.07;1.87;;;;;;;25.40;37.72;102455.75;21002565;28;20495;-69
2023/05/27 04:41:58;;;;;;;2.13;1.90;;;;;;;25.34;37.18;102457.69;21001213;28;20387;-69
2023/05/27 04:51:59;;;;;;;1.88;1.65;;;;;;;25.27;37.18;102437.47;21000381;28;20058;-68
2023/05/27 05:02:21;;;;;;;2.00;1.88;;;;;;;25.30;37.11;102447.31;20999629;28;20032;-69
2023/05/27 05:12:25;;;;;;;1.77;1.58;;;;;;;25.30;37.14;102436.94;20998870;28;20467;-69
2023/05/27 05:22:28;;;;;;;2.33;1.98;;;;;;;25.32;37.19;102437.50;20998330;28;20028;-68
2023/05/27 05:32:30;;;;;;;2.17;1.70;;;;;;;25.28;37.42;102436.34;20997079;28;20049;-69
2023/05/27 05:42:31;;;;;;;1.95;1.65;;;;;;;25.28;37.05;102436.34;20996328;28;20044;-69
2023/05/27 05:52:32;;;;;;;1.80;1.60;;;;;;;25.30;37.17;102434.13;20994515;28;20044;-68
2023/05/27 06:02:33;;;;;;;2.63;1.60;;;;;;;25.18;37.44;102425.13;20994941;28;20098;-69
2023/05/27 06:12:35;;;;;;;1.80;1.70;;;;;;;25.27;37.30;102447.84;20994640;28;20033;-69
2023/05/27 06:22:37;;;;;;;2.10;1.60;;;;;;;25.26;36.85;102443.38;20993969;28;20044;-69
2023/05/27 06:32:38;;;;;;;1.60;1.50;;;;;;;25.14;36.94;102423.13;20993533;28;20093;-69
2023/05/27 06:42:40;;;;;;;1.88;1.70;;;;;;;25.17;37.23;102440.25;20992749;28;20044;-69
2023/05/27 06:52:41;;;;;;;1.50;1.40;;;;;;;25.16;37.01;102432.97;20992732;28;20037;-68
2023/05/27 07:02:42;;;;;;;2.05;1.70;;;;;;;25.09;36.93;102421.16;20997951;28;20040;-69
2023/05/27 07:12:46;;;;;;;1.70;1.60;;;;;;;24.96;36.96;102390.81;21008747;28;20094;-69
2023/05/27 07:22:50;;;;;;;1.73;1.52;;;;;;;25.17;37.21;102431.84;21008098;28;20053;-68
2023/05/27 07:32:55;;;;;;;1.58;1.48;;;;;;;25.14;37.16;102421.19;21006583;28;20110;-69
2023/05/27 07:42:57;;;;;;;1.55;1.45;;;;;;;25.10;37.17;102448.88;21005096;28;20040;-69
2023/05/27 07:52:58;;;;;;;1.67;1.40;;;;;;;25.07;37.25;102445.78;21005271;28;20082;-68
2023/05/27 08:03:00;;;;;;;1.35;1.25;;;;;;;24.91;36.87;102435.59;21004610;28;20165;-69
2023/05/27 08:13:04;;;;;;;1.40;1.30;;;;;;;24.97;37.40;102452.19;21002957;28;20117;-69
2023/05/27 08:23:08;;;;;;;1.55;1.30;;;;;;;25.02;37.09;102473.78;21003456;28;20472;-68
2023/05/27 08:33:09;;;;;;;1.55;1.42;;;;;;;25.07;37.25;102485.00;21002130;28;20048;-69
2023/05/27 08:43:11;;;;;;;1.85;1.70;;;;;;;25.06;37.17;102472.09;21001544;28;20041;-68
2023/05/27 08:53:17;;;;;;;2.00;1.52;;;;;;;25.02;36.95;102476.56;21000749;28;20039;-68
2023/05/27 09:03:19;;;;;;;1.52;1.42;;;;;;;24.98;37.44;102486.63;20999826;28;20041;-69
2023/05/27 09:13:27;;;;;;;4.38;1.50;;;;;;;24.97;37.13;102493.31;20999146;28;20434;-69
2023/05/27 09:23:29;;;;;;;1.73;1.48;;;;;;;25.00;37.30;102498.38;20998725;28;20098;-68
2023/05/27 09:33:35;;;;;;;2.53;2.00;;;;;;;24.93;37.05;102503.41;20997511;28;20052;-69
2023/05/27 09:43:39;;;;;;;1.90;1.45;;;;;;;24.90;37.30;102512.34;20996584;28;20074;-68
2023/05/27 09:53:44;;;;;;;2.78;1.80;;;;;;;24.90;37.24;102529.13;20996081;28;20062;-68
2023/05/27 10:03:46;;;;;;;1.80;1.70;;;;;;;24.87;37.26;102543.66;20995168;28;20609;-68
2023/05/27 10:13:51;;;;;;;2.20;1.85;;;;;;;24.84;37.38;102543.09;20994615;28;20041;-68
2023/05/27 10:24:08;;;;;;;2.03;1.80;;;;;;;24.79;37.38;102551.47;20993926;28;20036;-68
2023/05/27 10:34:12;;;;;;;2.80;2.08;;;;;;;24.81;37.50;102559.59;20993490;28;20051;-68
2023/05/27 10:44:37;;;;;;;2.83;2.22;;;;;;;24.81;37.61;102560.44;20992723;28;20051;-68
2023/05/27 10:54:40;;;;;;;3.33;2.10;;;;;;;24.85;37.33;102567.19;20992463;28;20028;-68
2023/05/27 11:04:42;;;;;;;3.08;2.10;;;;;;;24.87;37.43;102585.66;20992574;28;20032;-68
2023/05/27 11:14:50;;;;;;;2.28;2.08;;;;;;;24.88;37.30;102585.41;20991801;28;20048;-67
2023/05/27 11:25:05;;;;;;;2.20;2.00;;;;;;;24.87;37.52;102591.28;20990890;28;20423;-68
2023/05/27 11:35:19;;;;;;;2.58;2.25;;;;;;;24.60;37.46;102547.38;20985037;28;20361;-68
2023/05/27 11:45:25;;;;;;;2.38;2.17;;;;;;;24.84;37.74;102604.72;20991101;28;20033;-68
2023/05/27 11:55:35;;;;;;;2.20;2.00;;;;;;;24.57;37.60;102551.56;21003795;28;20114;-69
2023/05/27 12:05:40;;;;;;;2.45;2.00;;;;;;;24.88;37.27;102590.16;21004854;28;20020;-68
2023/05/27 12:15:44;;;;;;;3.20;2.20;;;;;;;24.87;37.54;102596.88;21004139;28;20071;-69
2023/05/27 12:25:48;;;;;;;3.20;2.67;;;;;;;24.88;37.59;102609.75;21003074;28;20545;-69
2023/05/27 12:35:49;;;;;;;3.20;2.20;;;;;;;24.89;37.58;102603.06;21002559;28;20028;-69
2023/05/27 12:45:51;;;;;;;2.53;2.00;;;;;;;24.89;36.92;102603.06;21001485;28;20373;-69
2023/05/27 12:55:53;;;;;;;1.95;1.65;;;;;;;24.93;37.05;102619.06;21000707;28;20488;-69
2023/05/27 13:05:54;;;;;;;3.67;1.90;;;;;;;24.90;37.24;102613.16;20999752;28;20079;-67
2023/05/27 13:15:57;;;;;;;2.75;2.05;;;;;;;24.89;37.33;102617.06;20999023;28;20051;-69
2023/05/27 13:25:59;;;;;;;3.60;2.20;;;;;;;24.94;37.20;102614.31;20997904;28;20373;-67
2023/05/27 13:36:00;;;;;;;1.77;1.52;;;;;;;24.95;37.03;102615.97;20951501;28;20384;-69
2023/05/27 13:46:01;;;;;;;2.25;2.05;;;;;;;24.96;37.03;102606.47;20913832;28;20492;-67
2023/05/27 13:56:03;;;;;;;1.77;1.67;;;;;;;24.94;37.36;102603.94;20912986;28;20048;-67
2023/05/27 14:06:05;;;;;;;1.90;1.50;;;;;;;24.92;37.62;102594.94;20912715;28;20442;-67
2023/05/27 14:16:06;;;;;;;2.70;1.90;;;;;;;24.96;37.37;102584.91;20910951;28;20041;-67
2023/05/27 14:26:08;;;;;;;2.88;2.10;;;;;;;24.98;37.30;102593.88;20911529;28;20435;-69
2023/05/27 14:36:13;;;;;;;2.40;1.75;;;;;;;25.01;37.76;102581.28;20910695;28;20472;-67
2023/05/27 14:46:17;;;;;;;1.90;1.70;;;;;;;25.01;37.80;102584.09;20910127;28;20122;-68
2023/05/27 14:56:21;;;;;;;2.33;2.10;;;;;;;24.97;37.77;102568.94;20909971;28;20061;-68
2023/05/27 15:06:25;;;;;;;2.35;1.98;;;;;;;24.97;37.62;102563.34;20909741;28;20376;-68
2023/05/27 15:16:27;;;;;;;1.75;1.65;;;;;;;25.03;38.01;102551.06;20908757;28;20162;-68
2023/05/27 15:26:28;;;;;;;1.70;1.58;;;;;;;24.85;37.67;102525.19;20917602;28;20530;-68
2023/05/27 15:36:32;;;;;;;1.70;1.60;;;;;;;25.06;37.78;102540.19;20970128;28;20041;-67
2023/05/27 15:46:34;;;;;;;1.73;1.58;;;;;;;25.05;37.72;102518.84;21005692;28;20048;-67
2023/05/27 15:56:39;;;;;;;2.58;1.88;;;;;;;25.10;37.55;102510.50;21004657;28;20114;-68
2023/05/27 16:06:44;;;;;;;1.95;1.73;;;;;;;25.08;37.80;102492.31;21004676;28;20090;-68
2023/05/27 16:16:46;;;;;;;1.60;1.50;;;;;;;25.15;37.38;102492.88;21003656;28;20200;-67
2023/05/27 16:26:47;;;;;;;1.73;1.50;;;;;;;25.16;37.58;102483.38;21003187;28;20484;-67
2023/05/27 16:36:52;;;;;;;1.58;1.48;;;;;;;25.15;37.25;102464.88;20999827;28;20044;-67
2023/05/27 16:46:53;;;;;;;2.30;1.70;;;;;;;25.05;37.43;102448.84;21001043;28;20049;-67
2023/05/27 16:56:54;;;;;;;1.70;1.60;;;;;;;25.22;37.43;102459.88;21000456;28;20045;-67
2023/05/27 17:06:56;;;;;;;1.88;1.77;;;;;;;25.17;37.85;102431.84;20999585;28;20110;-68
2023/05/27 17:16:57;;;;;;;1.75;1.63;;;;;;;25.18;37.46;102425.13;20999177;28;20102;-69
2023/05/27 17:26:58;;;;;;;1.98;1.77;;;;;;;25.30;37.52;102428.53;20997816;28;20058;-68
2023/05/27 17:37:00;;;;;;;1.85;1.60;;;;;;;25.29;37.43;102426.84;20946041;28;20040;-67
2023/05/27 17:47:01;;;;;;;1.42;1.30;;;;;;;25.23;37.29;102413.94;20913110;28;20044;-68
2023/05/27 17:57:03;;;;;;;1.63;1.52;;;;;;;25.38;37.20;102420.69;20912964;28;20566;-68
2023/05/27 18:07:04;;;;;;;1.52;1.35;;;;;;;25.26;37.02;102387.34;20912565;28;20045;-68
2023/05/27 18:17:08;;;;;;;1.85;1.75;;;;;;;25.34;37.04;102395.22;20911459;28;20040;-69
2023/05/27 18:27:09;;;;;;;1.63;1.52;;;;;;;25.30;36.93;102366.06;20910531;28;20045;-67
2023/05/27 18:37:11;;;;;;;1.70;1.55;;;;;;;25.34;37.20;102373.63;20909657;28;20037;-68
2023/05/27 18:47:12;;;;;;;1.50;1.30;;;;;;;25.39;36.63;102357.94;20909678;28;20128;-67
2023/05/27 18:57:17;;;;;;;1.60;1.50;;;;;;;25.35;36.90;102352.88;20911893;28;20056;-68
2023/05/27 19:07:18;;;;;;;1.63;1.40;;;;;;;25.45;36.45;102345.63;20925994;28;20042;-69
2023/05/27 19:17:19;;;;;;;1.88;1.50;;;;;;;25.44;36.49;102338.34;20925425;28;20037;-68
2023/05/27 19:27:21;;;;;;;1.80;1.45;;;;;;;25.44;36.68;102338.34;20925084;28;20035;-68
2023/05/27 19:37:25;;;;;;;1.60;1.50;;;;;;;25.49;36.01;102315.91;20975223;28;20040;-68
2023/05/27 19:47:27;;;;;;;1.73;1.60;;;;;;;25.49;35.73;102318.72;21005564;28;20377;-68
2023/05/27 19:57:28;;;;;;;1.50;1.40;;;;;;;25.54;36.10;102304.69;21005220;28;20058;-67
2023/05/27 20:07:30;;;;;;;2.00;1.58;;;;;;;25.52;35.85;102305.00;21002390;28;20090;-68
2023/05/27 20:17:32;;;;;;;1.95;1.42;;;;;;;25.48;36.27;102287.06;21003570;28;20557;-68
2023/05/27 20:27:33;;;;;;;1.92;1.35;;;;;;;25.48;35.86;102275.00;21003112;28;20450;-68
2023/05/27 20:37:35;;;;;;;1.58;1.48;;;;;;;25.40;36.16;102264.34;21001937;28;20082;-68
2023/05/27 20:47:36;;;;;;;1.70;1.48;;;;;;;25.34;35.47;102239.13;21000996;28;20040;-68
2023/05/27 20:57:37;;;;;;;1.77;1.67;;;;;;;25.51;35.95;102274.44;21000322;28;20036;-68
2023/05/27 21:07:39;;;;;;;1.70;1.58;;;;;;;25.56;35.89;102257.59;20999206;28;20476;-68
2023/05/27 21:17:40;;;;;;;1.40;1.30;;;;;;;25.33;35.30;102212.22;20998937;28;20024;-68
2023/05/27 21:27:42;;;;;;;2.85;1.48;;;;;;;25.64;34.51;102259.84;20997956;28;20029;-68
2023/05/27 21:37:43;;;;;;;1.98;1.77;;;;;;;25.60;34.77;102245.53;20942420;28;20400;-67
2023/05/27 21:47:50;;;;;;;2.35;1.63;;;;;;;25.33;35.16;102202.97;20912971;28;20389;-68
2023/05/27 21:57:54;;;;;;;1.60;1.50;;;;;;;25.63;35.27;102246.97;20912303;28;20041;-68
2023/05/27 22:07:58;;;;;;;2.03;1.77;;;;;;;25.58;34.70;102238.56;20911670;28;20037;-68
2023/05/27 22:18:00;;;;;;;2.42;1.70;;;;;;;25.66;34.84;102252.00;20910900;28;20041;-68
2023/05/27 22:28:01;;;;;;;3.10;2.13;;;;;;;25.65;34.57;102250.31;20910063;28;20037;-68
2023/05/27 22:38:03;;;;;;;1.50;1.40;;;;;;;25.66;35.04;102253.94;20909986;28;20041;-68
2023/05/27 22:48:05;;;;;;;1.80;1.70;;;;;;;25.65;35.64;102255.91;20909767;28;20049;-68
2023/05/27 22:58:06;;;;;;;1.98;1.67;;;;;;;25.70;35.10;102269.09;20909093;28;20376;-69
2023/05/27 23:08:08;;;;;;;1.85;1.60;;;;;;;25.70;35.29;102275.53;20908526;28;20041;-67
2023/05/27 23:18:09;;;;;;;2.25;1.65;;;;;;;25.71;35.59;102282.84;20908306;28;20037;-67
2023/05/27 23:28:13;;;;;;;2.70;2.10;;;;;;;25.72;35.85;102292.94;20907920;28;20037;-67
2023/05/27 23:38:15;;;;;;;3.28;1.90;;;;;;;25.73;35.74;102291.81;20902632;28;20106;-67
2023/05/27 23:48:16;;;;;;;2.10;1.88;;;;;;;25.74;35.06;102306.66;20917364;28;20041;-67
2023/05/27 23:58:18;;;;;;;1.98;1.70;;;;;;;25.52;35.96;102290.97;20922390;28;20040;-67
